createdAt,value
2017-08-26T00:01:41.098Z,21.80
2017-08-26T00:06:43.707Z,21.70
2017-08-26T00:11:46.346Z,21.70
2017-08-26T00:16:48.957Z,21.60
2017-08-26T00:21:51.560Z,21.60
2017-08-26T00:26:54.149Z,21.50
2017-08-26T00:31:56.808Z,21.50
2017-08-26T00:36:59.415Z,21.40
2017-08-26T00:42:02.037Z,21.40
2017-08-26T00:47:04.658Z,21.30
2017-08-26T00:52:07.298Z,21.30
2017-08-26T00:57:09.920Z,21.20
2017-08-26T01:02:12.537Z,21.20
2017-08-26T01:07:21.067Z,21.10
2017-08-26T01:12:23.678Z,21.10
2017-08-26T01:17:27.049Z,21.00
2017-08-26T01:22:29.685Z,20.90
2017-08-26T01:27:32.369Z,20.90
2017-08-26T01:32:35.067Z,20.80
2017-08-26T01:37:38.012Z,20.80
2017-08-26T01:42:40.607Z,20.70
2017-08-26T01:47:43.197Z,20.70
2017-08-26T01:52:45.823Z,20.60
2017-08-26T01:57:48.443Z,20.60
2017-08-26T02:02:51.118Z,20.50
2017-08-26T02:07:53.748Z,20.50
2017-08-26T02:12:56.355Z,20.50
2017-08-26T02:17:58.974Z,20.40
2017-08-26T02:23:01.597Z,20.40
2017-08-26T02:28:04.272Z,20.30
2017-08-26T02:33:06.879Z,20.30
2017-08-26T02:38:09.473Z,20.30
2017-08-26T02:43:12.162Z,20.30
2017-08-26T02:48:14.773Z,20.20
2017-08-26T02:53:17.401Z,20.20
2017-08-26T02:58:20.006Z,20.10
2017-08-26T03:03:22.593Z,20.10
2017-08-26T03:08:25.200Z,20.10
2017-08-26T03:13:27.838Z,20.00
2017-08-26T03:18:30.428Z,20.00
2017-08-26T03:23:33.017Z,20.00
2017-08-26T03:28:35.638Z,19.90
2017-08-26T03:33:38.245Z,19.90
2017-08-26T03:38:40.853Z,19.90
2017-08-26T03:43:43.426Z,19.80
2017-08-26T03:48:46.032Z,19.80
2017-08-26T03:53:48.953Z,19.80
2017-08-26T03:58:51.576Z,19.70
2017-08-26T04:03:54.202Z,19.70
2017-08-26T04:08:56.792Z,19.70
2017-08-26T04:13:59.389Z,19.60
2017-08-26T04:19:02.609Z,19.60
2017-08-26T04:24:05.239Z,19.50
2017-08-26T04:29:08.675Z,19.50
2017-08-26T04:34:11.711Z,19.50
2017-08-26T04:39:14.585Z,19.40
2017-08-26T04:44:18.012Z,19.40
2017-08-26T04:49:20.599Z,19.40
2017-08-26T04:54:23.191Z,19.40
2017-08-26T04:59:25.821Z,19.30
2017-08-26T05:04:28.417Z,19.30
2017-08-26T05:09:31.067Z,19.40
2017-08-26T05:14:33.665Z,19.40
2017-08-26T05:19:36.305Z,19.40
2017-08-26T05:24:38.897Z,19.50
2017-08-26T05:29:41.507Z,19.50
2017-08-26T05:34:44.207Z,19.60
2017-08-26T05:39:46.810Z,19.70
2017-08-26T05:44:49.430Z,19.80
2017-08-26T05:49:52.018Z,20.00
2017-08-26T05:54:54.642Z,20.10
2017-08-26T05:59:57.282Z,20.30
2017-08-26T06:04:59.888Z,20.50
2017-08-26T06:10:02.512Z,20.80
2017-08-26T06:15:05.112Z,21.00
2017-08-26T06:20:07.755Z,21.20
2017-08-26T06:25:10.418Z,21.50
2017-08-26T06:30:13.044Z,21.80
2017-08-26T06:35:15.659Z,22.10
2017-08-26T06:40:18.267Z,22.50
2017-08-26T06:45:20.853Z,22.80
2017-08-26T06:50:23.454Z,23.10
2017-08-26T06:55:26.057Z,23.40
2017-08-26T07:00:29.207Z,23.60
2017-08-26T07:05:31.837Z,24.00
2017-08-26T07:10:34.452Z,24.20
2017-08-26T07:15:37.057Z,24.40
2017-08-26T07:20:39.682Z,24.70
2017-08-26T07:25:42.339Z,24.90
2017-08-26T07:30:44.922Z,25.20
2017-08-26T07:35:47.526Z,25.50
2017-08-26T07:40:50.158Z,25.70
2017-08-26T07:45:54.333Z,26.00
2017-08-26T07:50:56.963Z,26.20
2017-08-26T07:55:59.581Z,26.50
2017-08-26T08:01:02.168Z,26.70
2017-08-26T08:06:04.781Z,27.00
2017-08-26T08:11:07.386Z,27.20
2017-08-26T08:16:09.987Z,27.40
2017-08-26T08:21:12.594Z,27.70
2017-08-26T08:26:15.204Z,27.80
2017-08-26T08:31:18.364Z,28.00
2017-08-26T08:36:21.062Z,28.20
2017-08-26T08:41:23.680Z,28.40
2017-08-26T08:46:26.285Z,28.60
2017-08-26T08:51:28.899Z,28.80
2017-08-26T08:56:31.534Z,29.00
2017-08-26T09:01:34.140Z,29.20
2017-08-26T09:06:36.722Z,29.40
2017-08-26T09:11:39.331Z,29.60
2017-08-26T09:16:41.979Z,29.90
2017-08-26T09:21:44.577Z,30.00
2017-08-26T09:26:47.198Z,30.30
2017-08-26T09:31:49.797Z,30.50
2017-08-26T09:36:52.388Z,30.70
2017-08-26T09:41:55.005Z,30.90
2017-08-26T09:46:57.609Z,31.10
2017-08-26T09:52:00.242Z,31.20
2017-08-26T09:57:02.824Z,31.30
2017-08-26T10:02:05.434Z,31.60
2017-08-26T10:07:08.042Z,31.70
2017-08-26T10:12:10.660Z,31.80
2017-08-26T10:17:13.282Z,32.00
2017-08-26T10:22:15.938Z,32.20
2017-08-26T10:27:18.552Z,32.40
2017-08-26T10:32:21.249Z,32.60
2017-08-26T10:37:25.023Z,32.90
2017-08-26T10:42:27.634Z,32.90
2017-08-26T10:47:30.266Z,33.20
2017-08-26T10:52:33.005Z,33.30
2017-08-26T10:57:35.643Z,33.40
2017-08-26T11:02:38.274Z,33.60
2017-08-26T11:07:40.868Z,33.70
2017-08-26T11:12:43.475Z,33.90
2017-08-26T11:17:46.098Z,34.00
2017-08-26T11:22:49.482Z,34.20
2017-08-26T11:27:52.077Z,34.20
2017-08-26T11:32:54.666Z,34.30
2017-08-26T11:37:57.286Z,34.40
2017-08-26T11:42:59.878Z,34.50
2017-08-26T11:48:02.486Z,34.50
2017-08-26T11:53:05.096Z,34.60
2017-08-26T11:58:07.698Z,34.60
2017-08-26T12:03:10.296Z,34.70
2017-08-26T12:08:12.889Z,34.80
2017-08-26T12:13:15.497Z,34.90
2017-08-26T12:18:18.122Z,34.90
2017-08-26T12:23:20.761Z,35.00
2017-08-26T12:28:23.383Z,35.10
2017-08-26T12:33:25.993Z,35.10
2017-08-26T12:38:28.585Z,35.10
2017-08-26T12:43:31.930Z,35.20
2017-08-26T12:48:34.574Z,35.20
2017-08-26T12:53:37.184Z,35.20
2017-08-26T12:58:39.808Z,35.30
2017-08-26T13:03:42.411Z,35.30
2017-08-26T13:08:45.000Z,35.40
2017-08-26T13:13:47.609Z,35.40
2017-08-26T13:18:50.203Z,35.40
2017-08-26T13:23:52.827Z,35.40
2017-08-26T13:28:55.418Z,35.40
2017-08-26T13:33:58.053Z,35.40
2017-08-26T13:39:00.640Z,35.40
2017-08-26T13:44:03.258Z,35.30
2017-08-26T13:49:05.868Z,35.40
2017-08-26T13:54:08.507Z,35.30
2017-08-26T13:59:11.122Z,35.30
2017-08-26T14:04:14.021Z,35.30
2017-08-26T14:09:16.660Z,35.30
2017-08-26T14:14:19.278Z,35.30
2017-08-26T14:19:22.672Z,35.30
2017-08-26T14:24:25.333Z,35.30
2017-08-26T14:29:27.940Z,35.20
2017-08-26T14:34:30.546Z,35.10
2017-08-26T14:39:33.193Z,35.00
2017-08-26T14:44:35.809Z,35.00
2017-08-26T14:49:38.402Z,34.90
2017-08-26T14:54:41.065Z,34.80
2017-08-26T14:59:43.725Z,34.70
2017-08-26T15:04:46.318Z,34.60
2017-08-26T15:09:48.930Z,34.50
2017-08-26T15:14:51.618Z,34.40
2017-08-26T15:19:54.230Z,34.30
2017-08-26T15:24:56.895Z,34.20
2017-08-26T15:29:59.600Z,34.10
2017-08-26T15:35:02.215Z,34.00
2017-08-26T15:40:05.058Z,33.90
2017-08-26T15:45:07.658Z,33.70
2017-08-26T15:50:10.259Z,33.70
2017-08-26T15:55:12.890Z,33.60
2017-08-26T16:00:15.488Z,33.40
2017-08-26T16:05:18.137Z,33.30
2017-08-26T16:10:20.750Z,33.20
2017-08-26T16:15:23.389Z,33.10
2017-08-26T16:20:26.045Z,33.00
2017-08-26T16:25:28.655Z,32.90
2017-08-26T16:30:31.274Z,32.80
2017-08-26T16:35:33.896Z,32.70
2017-08-26T16:40:36.512Z,32.50
2017-08-26T16:45:39.123Z,32.30
2017-08-26T16:50:41.718Z,32.20
2017-08-26T16:55:44.318Z,32.00
2017-08-26T17:00:46.943Z,31.80
2017-08-26T17:05:49.562Z,31.70
2017-08-26T17:10:52.213Z,31.60
2017-08-26T17:15:54.827Z,31.40
2017-08-26T17:20:57.440Z,31.30
2017-08-26T17:26:00.062Z,31.10
2017-08-26T17:31:02.678Z,31.00
2017-08-26T17:36:05.262Z,30.80
2017-08-26T17:41:07.889Z,30.70
2017-08-26T17:46:10.509Z,30.50
2017-08-26T17:51:13.102Z,30.40
2017-08-26T17:56:15.703Z,30.20
2017-08-26T18:01:18.334Z,30.00
2017-08-26T18:06:20.943Z,29.90
2017-08-26T18:11:23.543Z,29.70
2017-08-26T18:16:26.215Z,29.50
2017-08-26T18:21:28.799Z,29.40
2017-08-26T18:26:31.401Z,29.20
2017-08-26T18:31:34.040Z,29.00
2017-08-26T18:36:36.658Z,28.80
2017-08-26T18:41:39.260Z,28.70
2017-08-26T18:46:41.897Z,28.60
2017-08-26T18:51:44.506Z,28.50
2017-08-26T18:56:47.118Z,28.50
2017-08-26T19:01:49.713Z,28.40
2017-08-26T19:06:52.322Z,28.30
2017-08-26T19:11:54.936Z,28.20
2017-08-26T19:16:57.554Z,28.10
2017-08-26T19:22:00.172Z,28.00
2017-08-26T19:27:02.767Z,27.90
2017-08-26T19:32:05.370Z,27.80
2017-08-26T19:37:07.960Z,27.60
2017-08-26T19:42:10.561Z,27.60
2017-08-26T19:47:13.163Z,27.40
2017-08-26T19:52:15.786Z,27.30
2017-08-26T19:57:18.431Z,27.20
2017-08-26T20:02:22.557Z,27.10
2017-08-26T20:07:25.169Z,27.00
2017-08-26T20:12:27.781Z,26.90
2017-08-26T20:17:30.370Z,26.80
2017-08-26T20:22:32.988Z,26.70
2017-08-26T20:27:35.592Z,26.60
2017-08-26T20:32:38.207Z,26.50
2017-08-26T20:37:40.797Z,26.40
2017-08-26T20:42:43.627Z,26.20
2017-08-26T20:47:46.278Z,26.00
2017-08-26T20:52:48.995Z,25.80
2017-08-26T20:57:51.582Z,25.50
2017-08-26T21:02:54.324Z,25.40
2017-08-26T21:07:57.015Z,25.20
2017-08-26T21:12:59.645Z,25.10
2017-08-26T21:18:02.544Z,24.90
2017-08-26T21:23:05.177Z,24.80
2017-08-26T21:28:07.854Z,24.60
2017-08-26T21:33:10.530Z,24.60
2017-08-26T21:38:13.166Z,24.50
2017-08-26T21:43:15.794Z,24.30
2017-08-26T21:48:18.989Z,24.30
2017-08-26T21:53:21.593Z,24.20
2017-08-26T21:58:24.225Z,24.00
2017-08-26T22:03:26.850Z,23.90
2017-08-26T22:08:29.482Z,23.90
2017-08-26T22:13:32.401Z,23.80
2017-08-26T22:18:35.034Z,23.70
2017-08-26T22:23:37.680Z,23.60
2017-08-26T22:28:40.269Z,23.50
2017-08-26T22:33:42.889Z,23.40
2017-08-26T22:38:45.506Z,23.30
2017-08-26T22:43:48.133Z,23.20
2017-08-26T22:48:50.739Z,23.20
2017-08-26T22:53:53.362Z,23.10
2017-08-26T22:58:55.975Z,23.00
2017-08-26T23:03:58.634Z,23.00
2017-08-26T23:09:01.226Z,22.90
2017-08-26T23:14:03.812Z,22.80
2017-08-26T23:19:06.433Z,22.70
2017-08-26T23:24:09.016Z,22.60
2017-08-26T23:29:11.614Z,22.60
2017-08-26T23:34:14.262Z,22.50
2017-08-26T23:39:16.867Z,22.40
2017-08-26T23:44:19.468Z,22.30
2017-08-26T23:49:22.098Z,22.30
2017-08-26T23:54:24.707Z,22.20
2017-08-26T23:59:27.344Z,22.10
